sensor_id;sensor_type;location;lat;lon;timestamp;temperature;humidity
67897;DHT22;54698;48.428;9.964;2022-11-15T00:01:22;7.50;99.90
67897;DHT22;54698;48.428;9.964;2022-11-15T00:03:50;7.50;99.90
67897;DHT22;54698;48.428;9.964;2022-11-15T00:06:16;7.50;99.90
67897;DHT22;54698;48.428;9.964;2022-11-15T00:08:42;7.40;99.90
67897;DHT22;54698;48.428;9.964;2022-11-15T00:11:11;7.40;99.90
67897;DHT22;54698;48.428;9.964;2022-11-15T00:13:37;7.40;99.90
67897;DHT22;54698;48.428;9.964;2022-11-15T00:16:04;7.40;99.90
67897;DHT22;54698;48.428;9.964;2022-11-15T00:18:30;7.40;99.90
67897;DHT22;54698;48.428;9.964;2022-11-15T00:20:56;7.30;99.90
67897;DHT22;54698;48.428;9.964;2022-11-15T00:23:28;7.20;99.90
67897;DHT22;54698;48.428;9.964;2022-11-15T00:25:58;7.10;99.90
67897;DHT22;54698;48.428;9.964;2022-11-15T00:28:25;7.10;99.90
67897;DHT22;54698;48.428;9.964;2022-11-15T00:30:51;7.10;99.90
67897;DHT22;54698;48.428;9.964;2022-11-15T00:33:18;7.20;99.90
67897;DHT22;54698;48.428;9.964;2022-11-15T00:35:44;7.20;99.90
67897;DHT22;54698;48.428;9.964;2022-11-15T00:38:10;7.20;99.90
67897;DHT22;54698;48.428;9.964;2022-11-15T00:40:36;7.20;99.90
67897;DHT22;54698;48.428;9.964;2022-11-15T00:43:01;7.20;99.90
67897;DHT22;54698;48.428;9.964;2022-11-15T00:45:29;7.20;99.90
67897;DHT22;54698;48.428;9.964;2022-11-15T00:47:54;7.20;99.90
67897;DHT22;54698;48.428;9.964;2022-11-15T00:50:20;7.20;99.90
67897;DHT22;54698;48.428;9.964;2022-11-15T00:52:46;7.20;99.90
67897;DHT22;54698;48.428;9.964;2022-11-15T00:55:13;7.20;99.90
67897;DHT22;54698;48.428;9.964;2022-11-15T00:57:40;7.30;99.90
67897;DHT22;54698;48.428;9.964;2022-11-15T01:00:07;7.30;99.90
67897;DHT22;54698;48.428;9.964;2022-11-15T01:02:35;7.30;99.90
67897;DHT22;54698;48.428;9.964;2022-11-15T01:05:01;7.30;99.90
67897;DHT22;54698;48.428;9.964;2022-11-15T01:07:27;7.40;99.90
67897;DHT22;54698;48.428;9.964;2022-11-15T01:09:53;7.50;99.90
67897;DHT22;54698;48.428;9.964;2022-11-15T01:12:19;7.60;99.90
67897;DHT22;54698;48.428;9.964;2022-11-15T01:14:45;7.70;99.90
67897;DHT22;54698;48.428;9.964;2022-11-15T01:17:10;7.70;99.90
67897;DHT22;54698;48.428;9.964;2022-11-15T01:19:38;7.70;99.90
67897;DHT22;54698;48.428;9.964;2022-11-15T01:22:03;7.70;99.90
67897;DHT22;54698;48.428;9.964;2022-11-15T01:24:29;7.70;99.90
67897;DHT22;54698;48.428;9.964;2022-11-15T01:26:56;7.70;99.90
67897;DHT22;54698;48.428;9.964;2022-11-15T01:29:22;7.70;99.90
67897;DHT22;54698;48.428;9.964;2022-11-15T01:31:48;7.50;99.90
67897;DHT22;54698;48.428;9.964;2022-11-15T01:34:14;7.50;99.90
67897;DHT22;54698;48.428;9.964;2022-11-15T01:36:41;7.40;99.90
67897;DHT22;54698;48.428;9.964;2022-11-15T01:39:08;7.20;99.90
67897;DHT22;54698;48.428;9.964;2022-11-15T01:41:33;7.10;99.90
67897;DHT22;54698;48.428;9.964;2022-11-15T01:47:10;6.80;99.90
67897;DHT22;54698;48.428;9.964;2022-11-15T01:49:40;6.60;99.90
67897;DHT22;54698;48.428;9.964;2022-11-15T01:52:15;6.50;99.90
67897;DHT22;54698;48.428;9.964;2022-11-15T01:54:43;6.40;99.90
67897;DHT22;54698;48.428;9.964;2022-11-15T01:57:10;6.20;99.90
67897;DHT22;54698;48.428;9.964;2022-11-15T01:59:38;6.30;99.90
67897;DHT22;54698;48.428;9.964;2022-11-15T02:02:05;6.20;99.90
67897;DHT22;54698;48.428;9.964;2022-11-15T02:04:32;6.10;99.90
67897;DHT22;54698;48.428;9.964;2022-11-15T02:07:02;5.90;99.90
67897;DHT22;54698;48.428;9.964;2022-11-15T02:09:30;5.80;99.90
67897;DHT22;54698;48.428;9.964;2022-11-15T02:11:56;5.80;99.90
67897;DHT22;54698;48.428;9.964;2022-11-15T02:14:24;5.70;99.90
67897;DHT22;54698;48.428;9.964;2022-11-15T02:16:58;5.60;99.90
67897;DHT22;54698;48.428;9.964;2022-11-15T02:19:47;5.60;99.90
67897;DHT22;54698;48.428;9.964;2022-11-15T02:22:32;5.50;99.90
67897;DHT22;54698;48.428;9.964;2022-11-15T02:25:29;5.60;99.90
67897;DHT22;54698;48.428;9.964;2022-11-15T02:28:26;5.60;99.90
67897;DHT22;54698;48.428;9.964;2022-11-15T02:31:19;5.70;99.90
67897;DHT22;54698;48.428;9.964;2022-11-15T02:33:54;5.60;99.90
67897;DHT22;54698;48.428;9.964;2022-11-15T02:36:33;5.50;99.90
67897;DHT22;54698;48.428;9.964;2022-11-15T02:39:08;5.30;99.90
67897;DHT22;54698;48.428;9.964;2022-11-15T02:41:45;5.20;99.90
67897;DHT22;54698;48.428;9.964;2022-11-15T02:44:17;5.20;99.90
67897;DHT22;54698;48.428;9.964;2022-11-15T02:46:51;5.30;99.90
67897;DHT22;54698;48.428;9.964;2022-11-15T02:49:19;5.40;99.90
67897;DHT22;54698;48.428;9.964;2022-11-15T02:51:47;5.50;99.90
67897;DHT22;54698;48.428;9.964;2022-11-15T02:54:17;5.60;99.90
67897;DHT22;54698;48.428;9.964;2022-11-15T02:56:46;5.70;99.90
67897;DHT22;54698;48.428;9.964;2022-11-15T02:59:38;5.70;99.90
67897;DHT22;54698;48.428;9.964;2022-11-15T03:02:23;5.80;99.90
67897;DHT22;54698;48.428;9.964;2022-11-15T03:04:59;5.70;99.90
67897;DHT22;54698;48.428;9.964;2022-11-15T03:07:34;5.70;99.90
67897;DHT22;54698;48.428;9.964;2022-11-15T03:10:06;5.70;99.90
67897;DHT22;54698;48.428;9.964;2022-11-15T03:12:37;5.70;99.90
67897;DHT22;54698;48.428;9.964;2022-11-15T03:15:11;5.70;99.90
67897;DHT22;54698;48.428;9.964;2022-11-15T03:17:43;5.80;99.90
67897;DHT22;54698;48.428;9.964;2022-11-15T03:20:13;5.70;99.90
67897;DHT22;54698;48.428;9.964;2022-11-15T03:22:42;5.80;99.90
67897;DHT22;54698;48.428;9.964;2022-11-15T03:25:10;5.80;99.90
67897;DHT22;54698;48.428;9.964;2022-11-15T03:27:43;5.80;99.90
67897;DHT22;54698;48.428;9.964;2022-11-15T03:30:13;5.80;99.90
67897;DHT22;54698;48.428;9.964;2022-11-15T03:32:44;5.80;99.90
67897;DHT22;54698;48.428;9.964;2022-11-15T03:35:14;5.90;99.90
67897;DHT22;54698;48.428;9.964;2022-11-15T03:37:45;5.90;99.90
67897;DHT22;54698;48.428;9.964;2022-11-15T03:40:16;5.90;99.90
67897;DHT22;54698;48.428;9.964;2022-11-15T03:42:48;5.90;99.90
67897;DHT22;54698;48.428;9.964;2022-11-15T03:45:19;5.90;99.90
67897;DHT22;54698;48.428;9.964;2022-11-15T03:47:53;5.80;99.90
67897;DHT22;54698;48.428;9.964;2022-11-15T03:50:24;5.90;99.90
67897;DHT22;54698;48.428;9.964;2022-11-15T03:52:50;5.90;99.90
67897;DHT22;54698;48.428;9.964;2022-11-15T03:55:19;5.90;99.90
67897;DHT22;54698;48.428;9.964;2022-11-15T03:57:45;5.90;99.90
67897;DHT22;54698;48.428;9.964;2022-11-15T04:00:12;5.90;99.90
67897;DHT22;54698;48.428;9.964;2022-11-15T04:02:38;5.90;99.90
67897;DHT22;54698;48.428;9.964;2022-11-15T04:05:06;5.90;99.90
67897;DHT22;54698;48.428;9.964;2022-11-15T04:07:33;5.90;99.90
67897;DHT22;54698;48.428;9.964;2022-11-15T04:09:58;5.80;99.90
67897;DHT22;54698;48.428;9.964;2022-11-15T04:12:24;5.80;99.90
67897;DHT22;54698;48.428;9.964;2022-11-15T04:14:50;5.70;99.90
67897;DHT22;54698;48.428;9.964;2022-11-15T04:17:16;5.90;99.90
67897;DHT22;54698;48.428;9.964;2022-11-15T04:19:42;6.00;99.90
67897;DHT22;54698;48.428;9.964;2022-11-15T04:22:09;6.10;99.90
67897;DHT22;54698;48.428;9.964;2022-11-15T04:24:35;6.10;99.90
67897;DHT22;54698;48.428;9.964;2022-11-15T04:27:01;6.20;99.90
67897;DHT22;54698;48.428;9.964;2022-11-15T04:29:27;6.30;99.90
67897;DHT22;54698;48.428;9.964;2022-11-15T04:31:52;6.30;99.90
67897;DHT22;54698;48.428;9.964;2022-11-15T04:34:18;6.40;99.90
67897;DHT22;54698;48.428;9.964;2022-11-15T04:36:44;6.40;99.90
67897;DHT22;54698;48.428;9.964;2022-11-15T04:39:11;6.50;99.90
67897;DHT22;54698;48.428;9.964;2022-11-15T04:41:37;6.50;99.90
67897;DHT22;54698;48.428;9.964;2022-11-15T04:44:03;6.50;99.90
67897;DHT22;54698;48.428;9.964;2022-11-15T04:46:29;6.60;99.90
67897;DHT22;54698;48.428;9.964;2022-11-15T04:48:55;6.60;99.90
67897;DHT22;54698;48.428;9.964;2022-11-15T04:51:21;6.60;99.90
67897;DHT22;54698;48.428;9.964;2022-11-15T04:53:46;6.60;99.90
67897;DHT22;54698;48.428;9.964;2022-11-15T04:56:13;6.60;99.90
67897;DHT22;54698;48.428;9.964;2022-11-15T04:58:39;6.60;99.90
67897;DHT22;54698;48.428;9.964;2022-11-15T05:01:07;6.60;99.90
67897;DHT22;54698;48.428;9.964;2022-11-15T05:03:32;6.50;99.90
67897;DHT22;54698;48.428;9.964;2022-11-15T05:05:58;6.50;99.90
67897;DHT22;54698;48.428;9.964;2022-11-15T05:08:24;6.50;99.90
67897;DHT22;54698;48.428;9.964;2022-11-15T05:10:50;6.50;99.90
67897;DHT22;54698;48.428;9.964;2022-11-15T05:13:17;6.40;99.90
67897;DHT22;54698;48.428;9.964;2022-11-15T05:15:43;6.30;99.90
67897;DHT22;54698;48.428;9.964;2022-11-15T05:18:09;6.30;99.90
67897;DHT22;54698;48.428;9.964;2022-11-15T05:20:35;6.10;99.90
67897;DHT22;54698;48.428;9.964;2022-11-15T05:23:01;5.90;99.90
67897;DHT22;54698;48.428;9.964;2022-11-15T05:25:27;5.70;99.90
67897;DHT22;54698;48.428;9.964;2022-11-15T05:27:53;5.40;99.90
67897;DHT22;54698;48.428;9.964;2022-11-15T05:30:20;5.30;99.90
67897;DHT22;54698;48.428;9.964;2022-11-15T05:32:47;5.20;99.90
67897;DHT22;54698;48.428;9.964;2022-11-15T05:35:18;5.20;99.90
67897;DHT22;54698;48.428;9.964;2022-11-15T05:37:47;5.00;99.90
67897;DHT22;54698;48.428;9.964;2022-11-15T05:40:14;5.00;99.90
67897;DHT22;54698;48.428;9.964;2022-11-15T05:42:40;5.20;99.90
67897;DHT22;54698;48.428;9.964;2022-11-15T05:45:08;5.10;99.90
67897;DHT22;54698;48.428;9.964;2022-11-15T05:47:37;4.90;99.90
67897;DHT22;54698;48.428;9.964;2022-11-15T05:50:03;4.90;99.90
67897;DHT22;54698;48.428;9.964;2022-11-15T05:52:31;4.90;99.90
67897;DHT22;54698;48.428;9.964;2022-11-15T05:54:59;4.90;99.90
67897;DHT22;54698;48.428;9.964;2022-11-15T05:57:25;4.80;99.90
67897;DHT22;54698;48.428;9.964;2022-11-15T05:59:51;4.80;99.90
67897;DHT22;54698;48.428;9.964;2022-11-15T06:02:17;4.80;99.90
67897;DHT22;54698;48.428;9.964;2022-11-15T06:04:44;4.80;99.90
67897;DHT22;54698;48.428;9.964;2022-11-15T06:07:10;4.90;99.90
67897;DHT22;54698;48.428;9.964;2022-11-15T06:09:36;4.80;99.90
67897;DHT22;54698;48.428;9.964;2022-11-15T06:12:02;4.90;99.90
67897;DHT22;54698;48.428;9.964;2022-11-15T06:14:28;4.90;99.90
67897;DHT22;54698;48.428;9.964;2022-11-15T06:16:53;4.90;99.90
67897;DHT22;54698;48.428;9.964;2022-11-15T06:19:19;4.90;99.90
67897;DHT22;54698;48.428;9.964;2022-11-15T06:21:47;4.90;99.90
67897;DHT22;54698;48.428;9.964;2022-11-15T06:24:13;4.90;99.90
67897;DHT22;54698;48.428;9.964;2022-11-15T06:26:38;4.90;99.90
67897;DHT22;54698;48.428;9.964;2022-11-15T06:29:04;5.00;99.90
67897;DHT22;54698;48.428;9.964;2022-11-15T06:31:30;5.10;99.90
67897;DHT22;54698;48.428;9.964;2022-11-15T06:33:56;5.20;99.90
67897;DHT22;54698;48.428;9.964;2022-11-15T06:36:22;5.30;99.90
67897;DHT22;54698;48.428;9.964;2022-11-15T06:38:49;5.50;99.90
67897;DHT22;54698;48.428;9.964;2022-11-15T06:41:15;5.60;99.90
67897;DHT22;54698;48.428;9.964;2022-11-15T06:43:41;5.60;99.90
67897;DHT22;54698;48.428;9.964;2022-11-15T06:46:07;5.60;99.90
67897;DHT22;54698;48.428;9.964;2022-11-15T06:48:34;5.60;99.90
67897;DHT22;54698;48.428;9.964;2022-11-15T06:51:02;5.60;99.90
67897;DHT22;54698;48.428;9.964;2022-11-15T06:53:30;5.60;99.90
67897;DHT22;54698;48.428;9.964;2022-11-15T06:56:00;5.60;99.90
67897;DHT22;54698;48.428;9.964;2022-11-15T06:58:26;5.50;99.90
67897;DHT22;54698;48.428;9.964;2022-11-15T07:00:51;5.50;99.90
67897;DHT22;54698;48.428;9.964;2022-11-15T07:03:17;5.40;99.90
67897;DHT22;54698;48.428;9.964;2022-11-15T07:05:50;5.30;99.90
67897;DHT22;54698;48.428;9.964;2022-11-15T07:08:17;5.20;99.90
67897;DHT22;54698;48.428;9.964;2022-11-15T07:10:43;5.10;99.90
67897;DHT22;54698;48.428;9.964;2022-11-15T07:13:10;5.00;99.90
67897;DHT22;54698;48.428;9.964;2022-11-15T07:15:36;5.00;99.90
67897;DHT22;54698;48.428;9.964;2022-11-15T07:18:01;5.00;99.90
67897;DHT22;54698;48.428;9.964;2022-11-15T07:20:27;5.00;99.90
67897;DHT22;54698;48.428;9.964;2022-11-15T07:22:59;5.00;99.90
67897;DHT22;54698;48.428;9.964;2022-11-15T07:25:25;4.90;99.90
67897;DHT22;54698;48.428;9.964;2022-11-15T07:27:54;4.90;99.90
67897;DHT22;54698;48.428;9.964;2022-11-15T07:30:21;4.90;99.90
67897;DHT22;54698;48.428;9.964;2022-11-15T07:32:48;4.90;99.90
67897;DHT22;54698;48.428;9.964;2022-11-15T07:35:17;5.00;99.90
67897;DHT22;54698;48.428;9.964;2022-11-15T07:37:43;5.10;99.90
67897;DHT22;54698;48.428;9.964;2022-11-15T07:40:10;5.10;99.90
67897;DHT22;54698;48.428;9.964;2022-11-15T07:42:36;5.20;99.90
67897;DHT22;54698;48.428;9.964;2022-11-15T07:45:02;5.30;99.90
67897;DHT22;54698;48.428;9.964;2022-11-15T07:47:29;5.40;99.90
67897;DHT22;54698;48.428;9.964;2022-11-15T07:49:56;5.40;99.90
67897;DHT22;54698;48.428;9.964;2022-11-15T07:52:22;5.50;99.90
67897;DHT22;54698;48.428;9.964;2022-11-15T07:54:47;5.50;99.90
67897;DHT22;54698;48.428;9.964;2022-11-15T07:57:13;5.60;99.90
67897;DHT22;54698;48.428;9.964;2022-11-15T07:59:39;5.70;99.90
67897;DHT22;54698;48.428;9.964;2022-11-15T08:02:05;5.80;99.90
67897;DHT22;54698;48.428;9.964;2022-11-15T08:04:32;5.80;99.90
67897;DHT22;54698;48.428;9.964;2022-11-15T08:06:58;5.80;99.90
67897;DHT22;54698;48.428;9.964;2022-11-15T08:09:24;6.00;99.90
67897;DHT22;54698;48.428;9.964;2022-11-15T08:11:50;6.00;99.90
67897;DHT22;54698;48.428;9.964;2022-11-15T08:14:15;6.10;99.90
67897;DHT22;54698;48.428;9.964;2022-11-15T08:16:41;6.20;99.90
67897;DHT22;54698;48.428;9.964;2022-11-15T08:19:07;6.30;99.90
67897;DHT22;54698;48.428;9.964;2022-11-15T08:21:34;6.50;99.90
67897;DHT22;54698;48.428;9.964;2022-11-15T08:24:00;6.60;99.90
67897;DHT22;54698;48.428;9.964;2022-11-15T08:26:26;6.80;99.90
67897;DHT22;54698;48.428;9.964;2022-11-15T08:28:52;6.90;99.90
67897;DHT22;54698;48.428;9.964;2022-11-15T08:31:18;7.10;99.90
67897;DHT22;54698;48.428;9.964;2022-11-15T08:33:44;7.30;99.90
67897;DHT22;54698;48.428;9.964;2022-11-15T08:36:13;7.70;99.90
67897;DHT22;54698;48.428;9.964;2022-11-15T08:38:42;8.20;99.90
67897;DHT22;54698;48.428;9.964;2022-11-15T08:41:12;8.50;99.90
67897;DHT22;54698;48.428;9.964;2022-11-15T08:43:39;8.90;99.90
67897;DHT22;54698;48.428;9.964;2022-11-15T08:46:05;9.20;99.90
67897;DHT22;54698;48.428;9.964;2022-11-15T08:48:31;9.50;99.90
67897;DHT22;54698;48.428;9.964;2022-11-15T08:50:57;9.80;99.90
67897;DHT22;54698;48.428;9.964;2022-11-15T08:53:23;10.00;99.90
67897;DHT22;54698;48.428;9.964;2022-11-15T08:55:50;10.20;99.90
67897;DHT22;54698;48.428;9.964;2022-11-15T08:58:16;10.30;99.90
67897;DHT22;54698;48.428;9.964;2022-11-15T09:00:42;10.40;99.90
67897;DHT22;54698;48.428;9.964;2022-11-15T09:03:08;10.30;99.90
67897;DHT22;54698;48.428;9.964;2022-11-15T09:05:36;9.90;99.90
67897;DHT22;54698;48.428;9.964;2022-11-15T09:08:02;9.50;99.90
67897;DHT22;54698;48.428;9.964;2022-11-15T09:10:28;9.30;99.90
67897;DHT22;54698;48.428;9.964;2022-11-15T09:12:56;9.40;99.90
67897;DHT22;54698;48.428;9.964;2022-11-15T09:15:22;9.70;99.90
67897;DHT22;54698;48.428;9.964;2022-11-15T09:17:48;10.20;99.90
67897;DHT22;54698;48.428;9.964;2022-11-15T09:20:15;10.40;99.90
67897;DHT22;54698;48.428;9.964;2022-11-15T09:22:41;10.60;99.90
67897;DHT22;54698;48.428;9.964;2022-11-15T09:25:07;10.50;99.90
67897;DHT22;54698;48.428;9.964;2022-11-15T09:27:34;10.60;99.90
67897;DHT22;54698;48.428;9.964;2022-11-15T09:30:01;10.70;99.90
67897;DHT22;54698;48.428;9.964;2022-11-15T09:32:28;10.80;99.90
67897;DHT22;54698;48.428;9.964;2022-11-15T09:34:54;10.90;99.90
67897;DHT22;54698;48.428;9.964;2022-11-15T09:37:20;10.90;99.90
67897;DHT22;54698;48.428;9.964;2022-11-15T09:39:46;11.10;99.90
67897;DHT22;54698;48.428;9.964;2022-11-15T09:42:26;11.10;99.90
67897;DHT22;54698;48.428;9.964;2022-11-15T09:45:14;11.20;99.90
67897;DHT22;54698;48.428;9.964;2022-11-15T09:51:04;11.10;99.90
67897;DHT22;54698;48.428;9.964;2022-11-15T09:53:38;11.30;99.90
67897;DHT22;54698;48.428;9.964;2022-11-15T09:56:14;11.50;99.90
67897;DHT22;54698;48.428;9.964;2022-11-15T09:58:52;11.60;99.90
67897;DHT22;54698;48.428;9.964;2022-11-15T10:01:35;11.80;99.90
67897;DHT22;54698;48.428;9.964;2022-11-15T10:04:06;12.00;99.90
67897;DHT22;54698;48.428;9.964;2022-11-15T10:06:33;12.20;99.90
67897;DHT22;54698;48.428;9.964;2022-11-15T10:09:09;12.50;99.90
67897;DHT22;54698;48.428;9.964;2022-11-15T10:11:40;12.80;99.90
67897;DHT22;54698;48.428;9.964;2022-11-15T10:14:10;12.90;99.90
67897;DHT22;54698;48.428;9.964;2022-11-15T10:17:06;13.10;99.90
67897;DHT22;54698;48.428;9.964;2022-11-15T10:19:44;13.20;99.90
67897;DHT22;54698;48.428;9.964;2022-11-15T10:22:25;13.20;99.90
67897;DHT22;54698;48.428;9.964;2022-11-15T10:25:01;13.20;99.90
67897;DHT22;54698;48.428;9.964;2022-11-15T10:27:36;13.30;99.90
67897;DHT22;54698;48.428;9.964;2022-11-15T10:30:06;13.30;99.90
67897;DHT22;54698;48.428;9.964;2022-11-15T10:32:39;13.40;99.90
67897;DHT22;54698;48.428;9.964;2022-11-15T10:35:18;13.40;99.90
67897;DHT22;54698;48.428;9.964;2022-11-15T10:37:45;13.50;99.90
67897;DHT22;54698;48.428;9.964;2022-11-15T10:40:16;13.70;99.90
67897;DHT22;54698;48.428;9.964;2022-11-15T10:42:44;13.80;99.90
67897;DHT22;54698;48.428;9.964;2022-11-15T10:45:24;13.90;99.90
67897;DHT22;54698;48.428;9.964;2022-11-15T10:47:54;14.10;99.90
67897;DHT22;54698;48.428;9.964;2022-11-15T10:50:47;14.20;99.90
67897;DHT22;54698;48.428;9.964;2022-11-15T10:53:19;14.00;99.90
67897;DHT22;54698;48.428;9.964;2022-11-15T10:55:50;13.70;99.90
67897;DHT22;54698;48.428;9.964;2022-11-15T10:58:28;13.60;99.90
67897;DHT22;54698;48.428;9.964;2022-11-15T11:01:09;13.60;99.90
67897;DHT22;54698;48.428;9.964;2022-11-15T11:03:39;13.60;99.90
67897;DHT22;54698;48.428;9.964;2022-11-15T11:06:11;13.40;99.90
67897;DHT22;54698;48.428;9.964;2022-11-15T11:08:38;13.20;99.90
67897;DHT22;54698;48.428;9.964;2022-11-15T11:11:05;13.10;99.90
67897;DHT22;54698;48.428;9.964;2022-11-15T11:13:33;13.00;99.90
67897;DHT22;54698;48.428;9.964;2022-11-15T11:16:15;12.90;99.90
67897;DHT22;54698;48.428;9.964;2022-11-15T11:18:51;13.00;99.90
67897;DHT22;54698;48.428;9.964;2022-11-15T11:21:26;13.20;99.90
67897;DHT22;54698;48.428;9.964;2022-11-15T11:24:01;13.30;99.90
67897;DHT22;54698;48.428;9.964;2022-11-15T11:26:41;13.50;99.90
67897;DHT22;54698;48.428;9.964;2022-11-15T11:29:19;13.70;99.90
67897;DHT22;54698;48.428;9.964;2022-11-15T11:31:58;13.80;99.90
67897;DHT22;54698;48.428;9.964;2022-11-15T11:34:39;13.90;99.90
67897;DHT22;54698;48.428;9.964;2022-11-15T11:37:14;13.90;99.90
67897;DHT22;54698;48.428;9.964;2022-11-15T11:39:53;13.90;99.90
67897;DHT22;54698;48.428;9.964;2022-11-15T11:42:31;13.90;99.90
67897;DHT22;54698;48.428;9.964;2022-11-15T11:45:18;13.80;99.90
67897;DHT22;54698;48.428;9.964;2022-11-15T11:48:12;13.80;99.90
67897;DHT22;54698;48.428;9.964;2022-11-15T11:50:41;13.80;99.90
67897;DHT22;54698;48.428;9.964;2022-11-15T11:53:12;13.90;99.90
67897;DHT22;54698;48.428;9.964;2022-11-15T11:55:43;14.00;99.90
67897;DHT22;54698;48.428;9.964;2022-11-15T11:58:14;14.20;99.90
67897;DHT22;54698;48.428;9.964;2022-11-15T12:00:47;14.40;99.90
67897;DHT22;54698;48.428;9.964;2022-11-15T12:03:24;14.60;99.90
67897;DHT22;54698;48.428;9.964;2022-11-15T12:05:55;14.60;99.90
67897;DHT22;54698;48.428;9.964;2022-11-15T12:08:31;14.90;99.90
67897;DHT22;54698;48.428;9.964;2022-11-15T12:11:07;15.20;99.90
67897;DHT22;54698;48.428;9.964;2022-11-15T12:13:36;15.50;99.90
67897;DHT22;54698;48.428;9.964;2022-11-15T12:16:07;15.70;99.90
67897;DHT22;54698;48.428;9.964;2022-11-15T12:18:38;15.90;99.70
67897;DHT22;54698;48.428;9.964;2022-11-15T12:21:08;16.00;98.60
67897;DHT22;54698;48.428;9.964;2022-11-15T12:23:43;16.20;96.90
67897;DHT22;54698;48.428;9.964;2022-11-15T12:26:17;16.40;97.10
67897;DHT22;54698;48.428;9.964;2022-11-15T12:28:47;16.70;96.00
67897;DHT22;54698;48.428;9.964;2022-11-15T12:31:17;16.90;95.70
67897;DHT22;54698;48.428;9.964;2022-11-15T12:33:47;16.80;94.80
67897;DHT22;54698;48.428;9.964;2022-11-15T12:39:08;16.60;94.10
67897;DHT22;54698;48.428;9.964;2022-11-15T12:41:35;17.00;94.10
67897;DHT22;54698;48.428;9.964;2022-11-15T12:44:03;17.30;94.80
67897;DHT22;54698;48.428;9.964;2022-11-15T12:49:48;17.50;93.20
67897;DHT22;54698;48.428;9.964;2022-11-15T12:52:14;17.40;93.20
67897;DHT22;54698;48.428;9.964;2022-11-15T12:54:57;17.50;93.80
67897;DHT22;54698;48.428;9.964;2022-11-15T12:57:54;17.50;94.10
67897;DHT22;54698;48.428;9.964;2022-11-15T13:00:44;17.40;93.40
67897;DHT22;54698;48.428;9.964;2022-11-15T13:03:34;17.10;93.80
67897;DHT22;54698;48.428;9.964;2022-11-15T13:06:33;16.70;93.00
67897;DHT22;54698;48.428;9.964;2022-11-15T13:09:03;16.30;94.70
67897;DHT22;54698;48.428;9.964;2022-11-15T13:11:44;16.00;95.40
67897;DHT22;54698;48.428;9.964;2022-11-15T13:14:40;15.40;94.70
67897;DHT22;54698;48.428;9.964;2022-11-15T13:17:29;15.00;96.40
67897;DHT22;54698;48.428;9.964;2022-11-15T13:22:59;14.70;98.10
67897;DHT22;54698;48.428;9.964;2022-11-15T13:25:57;14.40;98.60
67897;DHT22;54698;48.428;9.964;2022-11-15T13:28:35;14.10;99.40
67897;DHT22;54698;48.428;9.964;2022-11-15T13:31:14;13.90;99.50
67897;DHT22;54698;48.428;9.964;2022-11-15T13:33:48;13.70;99.90
67897;DHT22;54698;48.428;9.964;2022-11-15T13:36:15;13.60;99.90
67897;DHT22;54698;48.428;9.964;2022-11-15T13:38:44;13.40;99.90
67897;DHT22;54698;48.428;9.964;2022-11-15T13:41:21;13.30;99.90
67897;DHT22;54698;48.428;9.964;2022-11-15T13:43:49;13.20;99.90
67897;DHT22;54698;48.428;9.964;2022-11-15T13:46:18;13.20;99.90
67897;DHT22;54698;48.428;9.964;2022-11-15T13:48:46;13.10;99.90
67897;DHT22;54698;48.428;9.964;2022-11-15T13:51:20;13.10;99.90
67897;DHT22;54698;48.428;9.964;2022-11-15T13:53:49;13.00;99.90
67897;DHT22;54698;48.428;9.964;2022-11-15T13:56:18;13.10;99.90
67897;DHT22;54698;48.428;9.964;2022-11-15T13:58:48;13.10;99.90
67897;DHT22;54698;48.428;9.964;2022-11-15T14:01:16;13.20;99.90
67897;DHT22;54698;48.428;9.964;2022-11-15T14:03:49;13.10;99.90
67897;DHT22;54698;48.428;9.964;2022-11-15T14:06:19;13.30;99.90
67897;DHT22;54698;48.428;9.964;2022-11-15T14:09:15;13.40;99.90
67897;DHT22;54698;48.428;9.964;2022-11-15T14:11:52;13.30;99.90
67897;DHT22;54698;48.428;9.964;2022-11-15T14:14:21;13.00;99.90
67897;DHT22;54698;48.428;9.964;2022-11-15T14:16:49;12.90;99.90
67897;DHT22;54698;48.428;9.964;2022-11-15T14:19:37;12.80;99.90
67897;DHT22;54698;48.428;9.964;2022-11-15T14:22:12;12.80;99.90
67897;DHT22;54698;48.428;9.964;2022-11-15T14:24:42;12.70;99.90
67897;DHT22;54698;48.428;9.964;2022-11-15T14:27:20;12.70;99.90
67897;DHT22;54698;48.428;9.964;2022-11-15T14:29:49;12.50;99.90
67897;DHT22;54698;48.428;9.964;2022-11-15T14:32:18;12.30;99.90
67897;DHT22;54698;48.428;9.964;2022-11-15T14:34:45;12.10;99.90
67897;DHT22;54698;48.428;9.964;2022-11-15T14:37:20;12.00;99.90
67897;DHT22;54698;48.428;9.964;2022-11-15T14:39:49;12.00;99.90
67897;DHT22;54698;48.428;9.964;2022-11-15T14:42:15;11.90;99.90
67897;DHT22;54698;48.428;9.964;2022-11-15T14:44:41;11.90;99.90
67897;DHT22;54698;48.428;9.964;2022-11-15T14:47:08;12.00;99.90
67897;DHT22;54698;48.428;9.964;2022-11-15T14:49:34;11.90;99.90
67897;DHT22;54698;48.428;9.964;2022-11-15T14:52:00;11.80;99.90
67897;DHT22;54698;48.428;9.964;2022-11-15T14:54:26;11.70;99.90
67897;DHT22;54698;48.428;9.964;2022-11-15T14:56:51;11.60;99.90
67897;DHT22;54698;48.428;9.964;2022-11-15T14:59:17;11.50;99.90
67897;DHT22;54698;48.428;9.964;2022-11-15T15:01:43;11.50;99.90
67897;DHT22;54698;48.428;9.964;2022-11-15T15:04:10;11.30;99.90
67897;DHT22;54698;48.428;9.964;2022-11-15T15:06:36;11.30;99.90
67897;DHT22;54698;48.428;9.964;2022-11-15T15:09:03;11.20;99.90
67897;DHT22;54698;48.428;9.964;2022-11-15T15:11:30;11.20;99.90
67897;DHT22;54698;48.428;9.964;2022-11-15T15:13:57;11.10;99.90
67897;DHT22;54698;48.428;9.964;2022-11-15T15:16:23;11.00;99.90
67897;DHT22;54698;48.428;9.964;2022-11-15T15:18:49;11.00;99.90
67897;DHT22;54698;48.428;9.964;2022-11-15T15:21:20;10.90;99.90
67897;DHT22;54698;48.428;9.964;2022-11-15T15:23:47;10.80;99.90
67897;DHT22;54698;48.428;9.964;2022-11-15T15:26:13;10.80;99.90
67897;DHT22;54698;48.428;9.964;2022-11-15T15:28:39;10.70;99.90
67897;DHT22;54698;48.428;9.964;2022-11-15T15:31:05;10.60;99.90
67897;DHT22;54698;48.428;9.964;2022-11-15T15:33:31;10.60;99.90
67897;DHT22;54698;48.428;9.964;2022-11-15T15:36:00;10.60;99.90
67897;DHT22;54698;48.428;9.964;2022-11-15T15:38:27;10.50;99.90
67897;DHT22;54698;48.428;9.964;2022-11-15T15:40:53;10.50;99.90
67897;DHT22;54698;48.428;9.964;2022-11-15T15:43:19;10.50;99.90
67897;DHT22;54698;48.428;9.964;2022-11-15T15:45:44;10.50;99.90
67897;DHT22;54698;48.428;9.964;2022-11-15T15:48:12;10.40;99.90
67897;DHT22;54698;48.428;9.964;2022-11-15T15:50:39;10.50;99.90
67897;DHT22;54698;48.428;9.964;2022-11-15T15:53:05;10.40;99.90
67897;DHT22;54698;48.428;9.964;2022-11-15T15:55:32;10.40;99.90
67897;DHT22;54698;48.428;9.964;2022-11-15T15:57:58;10.30;99.90
67897;DHT22;54698;48.428;9.964;2022-11-15T16:00:25;10.10;99.90
67897;DHT22;54698;48.428;9.964;2022-11-15T16:02:51;10.10;99.90
67897;DHT22;54698;48.428;9.964;2022-11-15T16:05:17;10.00;99.90
67897;DHT22;54698;48.428;9.964;2022-11-15T16:07:43;10.10;99.90
67897;DHT22;54698;48.428;9.964;2022-11-15T16:10:18;10.10;99.90
67897;DHT22;54698;48.428;9.964;2022-11-15T16:12:48;10.10;99.90